createdAt,value
2019-03-17T00:00:47.717Z,5.70
2019-03-17T00:01:57.698Z,5.70
2019-03-17T00:03:03.760Z,5.70
2019-03-17T00:04:11.403Z,5.80
2019-03-17T00:05:18.803Z,5.70
2019-03-17T00:06:26.064Z,5.70
2019-03-17T00:07:33.334Z,5.60
2019-03-17T00:08:40.549Z,5.70
2019-03-17T00:09:48.152Z,5.70
2019-03-17T00:10:55.808Z,5.80
2019-03-17T00:12:03.438Z,5.70
2019-03-17T00:13:10.875Z,5.70
2019-03-17T00:14:18.088Z,5.80
2019-03-17T00:15:25.145Z,5.80
2019-03-17T00:16:32.786Z,5.80
2019-03-17T00:17:41.847Z,5.70
2019-03-17T00:18:49.455Z,5.70
2019-03-17T00:19:56.930Z,5.70
2019-03-17T00:21:04.034Z,5.60
2019-03-17T00:22:11.220Z,5.70
2019-03-17T00:23:18.491Z,5.70
2019-03-17T00:24:25.825Z,5.70
2019-03-17T00:25:33.146Z,5.80
2019-03-17T00:26:40.407Z,5.70
2019-03-17T00:27:47.768Z,5.80
2019-03-17T00:28:55.151Z,5.80
2019-03-17T00:30:02.437Z,5.80
2019-03-17T00:31:22.940Z,5.80
2019-03-17T00:32:19.818Z,5.70
2019-03-17T00:33:27.224Z,5.70
2019-03-17T00:34:43.484Z,5.70
2019-03-17T00:35:43.602Z,5.70
2019-03-17T00:36:50.929Z,5.70
2019-03-17T00:37:57.970Z,5.70
2019-03-17T00:39:05.973Z,5.70
2019-03-17T00:40:13.555Z,5.70
2019-03-17T00:41:20.790Z,5.70
2019-03-17T00:42:28.177Z,5.70
2019-03-17T00:43:35.349Z,5.70
2019-03-17T00:44:42.717Z,5.70
2019-03-17T00:45:50.028Z,5.70
2019-03-17T00:46:57.640Z,5.70
2019-03-17T00:48:04.716Z,5.70
2019-03-17T00:49:11.979Z,5.60
2019-03-17T00:50:19.593Z,5.70
2019-03-17T00:51:27.011Z,5.70
2019-03-17T00:52:34.511Z,5.70
2019-03-17T00:53:41.897Z,5.80
2019-03-17T00:54:49.266Z,5.70
2019-03-17T00:55:56.404Z,5.70
2019-03-17T00:57:03.890Z,5.70
2019-03-17T00:58:11.163Z,5.70
2019-03-17T00:59:18.258Z,5.60
2019-03-17T01:00:25.530Z,5.70
2019-03-17T01:01:33.054Z,5.70
2019-03-17T01:02:40.737Z,5.80
2019-03-17T01:03:48.106Z,5.80
2019-03-17T01:04:56.387Z,5.80
2019-03-17T01:06:04.018Z,5.80
2019-03-17T01:07:11.333Z,5.80
2019-03-17T01:08:18.978Z,5.80
2019-03-17T01:09:25.922Z,5.80
2019-03-17T01:10:33.097Z,5.80
2019-03-17T01:11:40.487Z,5.80
2019-03-17T01:12:47.823Z,5.80
2019-03-17T01:13:55.308Z,5.70
2019-03-17T01:15:02.750Z,5.80
2019-03-17T01:16:10.202Z,5.70
2019-03-17T01:17:18.703Z,5.70
2019-03-17T01:18:26.038Z,5.80
2019-03-17T01:19:33.432Z,5.80
2019-03-17T01:20:40.619Z,5.90
2019-03-17T01:21:48.046Z,5.80
2019-03-17T01:22:55.374Z,5.80
2019-03-17T01:24:02.988Z,5.80
2019-03-17T01:25:10.228Z,5.80
2019-03-17T01:26:17.390Z,5.90
2019-03-17T01:27:24.614Z,5.90
2019-03-17T01:28:31.959Z,5.90
2019-03-17T01:29:39.514Z,6.00
2019-03-17T01:30:46.862Z,6.00
2019-03-17T01:31:54.044Z,5.90
2019-03-17T01:33:01.310Z,5.80
2019-03-17T01:34:08.890Z,5.80
2019-03-17T01:35:16.281Z,5.80
2019-03-17T01:36:23.746Z,5.80
2019-03-17T01:37:31.221Z,5.80
2019-03-17T01:38:38.588Z,5.80
2019-03-17T01:39:45.866Z,5.80
2019-03-17T01:40:55.178Z,5.80
2019-03-17T01:42:02.248Z,5.90
2019-03-17T01:43:09.857Z,5.90
2019-03-17T01:44:17.656Z,5.90
2019-03-17T01:45:25.249Z,5.90
2019-03-17T01:46:32.686Z,5.90
2019-03-17T01:47:39.936Z,5.90
2019-03-17T01:48:47.222Z,5.90
2019-03-17T01:49:54.663Z,5.80
2019-03-17T01:51:02.108Z,5.80
2019-03-17T01:52:09.681Z,5.90
2019-03-17T01:53:17.090Z,5.90
2019-03-17T01:54:25.304Z,5.80
2019-03-17T01:55:32.660Z,5.80
2019-03-17T01:56:39.965Z,5.80
2019-03-17T01:57:47.278Z,5.90
2019-03-17T01:58:54.468Z,5.90
2019-03-17T02:00:01.874Z,5.90
2019-03-17T02:01:11.896Z,5.90
2019-03-17T02:02:19.207Z,5.90
2019-03-17T02:03:26.858Z,5.80
2019-03-17T02:04:34.147Z,5.80
2019-03-17T02:05:42.934Z,5.80
2019-03-17T02:06:50.429Z,5.90
2019-03-17T02:07:57.626Z,6.00
2019-03-17T02:09:06.432Z,6.00
2019-03-17T02:10:13.967Z,6.00
2019-03-17T02:11:21.211Z,6.00
2019-03-17T02:12:28.233Z,6.00
2019-03-17T02:13:35.460Z,6.00
2019-03-17T02:14:42.891Z,6.10
2019-03-17T02:15:50.050Z,6.10
2019-03-17T02:16:57.299Z,6.10
2019-03-17T02:18:04.779Z,6.00
2019-03-17T02:19:12.669Z,6.10
2019-03-17T02:20:20.088Z,6.10
2019-03-17T02:21:27.627Z,6.10
2019-03-17T02:22:35.032Z,6.10
2019-03-17T02:23:42.175Z,6.20
2019-03-17T02:24:49.828Z,6.10
2019-03-17T02:25:57.397Z,6.10
2019-03-17T02:27:04.738Z,6.10
2019-03-17T02:28:12.233Z,6.10
2019-03-17T02:29:19.498Z,6.20
2019-03-17T02:30:26.481Z,6.20
2019-03-17T02:31:33.682Z,6.20
2019-03-17T02:32:41.016Z,6.10
2019-03-17T02:33:48.664Z,6.10
2019-03-17T02:34:55.946Z,6.20
2019-03-17T02:36:03.465Z,6.20
2019-03-17T02:37:10.982Z,6.20
2019-03-17T02:38:18.297Z,6.20
2019-03-17T02:39:26.490Z,6.20
2019-03-17T02:40:33.452Z,6.20
2019-03-17T02:41:41.080Z,6.20
2019-03-17T02:42:48.511Z,6.20
2019-03-17T02:43:55.798Z,6.20
2019-03-17T02:45:03.001Z,6.30
2019-03-17T02:46:10.182Z,6.30
2019-03-17T02:47:17.756Z,6.40
2019-03-17T02:48:25.433Z,6.40
2019-03-17T02:49:32.921Z,6.30
2019-03-17T02:50:40.192Z,6.30
2019-03-17T02:51:47.610Z,6.30
2019-03-17T02:52:55.049Z,6.40
2019-03-17T02:54:02.334Z,6.30
2019-03-17T02:55:09.742Z,6.40
2019-03-17T02:56:17.093Z,6.40
2019-03-17T02:57:24.792Z,6.40
2019-03-17T02:58:31.991Z,6.30
2019-03-17T02:59:39.441Z,6.40
2019-03-17T03:00:46.779Z,6.40
2019-03-17T03:01:54.308Z,6.50
2019-03-17T03:03:01.774Z,6.50
2019-03-17T03:04:09.297Z,6.50
2019-03-17T03:05:16.401Z,6.50
2019-03-17T03:06:23.857Z,6.50
2019-03-17T03:07:31.112Z,6.50
2019-03-17T03:08:38.762Z,6.60
2019-03-17T03:09:46.154Z,6.60
2019-03-17T03:10:53.612Z,6.60
2019-03-17T03:12:00.790Z,6.60
2019-03-17T03:13:07.992Z,6.60
2019-03-17T03:14:15.492Z,6.60
2019-03-17T03:15:22.910Z,6.60
2019-03-17T03:16:30.251Z,6.70
2019-03-17T03:17:37.366Z,6.70
2019-03-17T03:18:44.828Z,6.70
2019-03-17T03:19:52.187Z,6.80
2019-03-17T03:20:59.449Z,6.80
2019-03-17T03:22:06.810Z,6.70
2019-03-17T03:23:14.184Z,6.80
2019-03-17T03:24:21.897Z,6.80
2019-03-17T03:25:29.259Z,6.80
2019-03-17T03:26:36.770Z,6.90
2019-03-17T03:27:44.118Z,6.80
2019-03-17T03:28:51.355Z,6.80
2019-03-17T03:29:58.454Z,6.80
2019-03-17T03:31:05.757Z,6.80
2019-03-17T03:32:13.238Z,6.80
2019-03-17T03:33:20.490Z,6.80
2019-03-17T03:34:27.899Z,6.80
2019-03-17T03:35:35.386Z,6.80
2019-03-17T03:36:42.788Z,6.80
2019-03-17T03:37:50.150Z,6.80
2019-03-17T03:38:57.091Z,6.80
2019-03-17T03:40:04.710Z,6.80
2019-03-17T03:41:11.969Z,6.80
2019-03-17T03:42:20.154Z,6.80
2019-03-17T03:43:27.884Z,6.90
2019-03-17T03:44:35.334Z,6.80
2019-03-17T03:45:42.731Z,6.80
2019-03-17T03:46:50.111Z,6.80
2019-03-17T03:47:57.373Z,6.80
2019-03-17T03:49:04.848Z,6.80
2019-03-17T03:50:12.603Z,6.80
2019-03-17T03:51:19.911Z,6.80
2019-03-17T03:52:27.320Z,6.80
2019-03-17T03:53:34.491Z,6.80
2019-03-17T03:54:42.153Z,6.80
2019-03-17T03:55:49.514Z,6.80
2019-03-17T03:56:56.800Z,6.90
2019-03-17T03:58:04.278Z,6.90
2019-03-17T03:59:11.469Z,6.90
2019-03-17T04:00:18.562Z,6.80
2019-03-17T04:01:26.112Z,6.90
2019-03-17T04:02:33.480Z,6.90
2019-03-17T04:03:40.898Z,6.80
2019-03-17T04:04:49.197Z,6.90
2019-03-17T04:05:56.446Z,6.90
2019-03-17T04:07:03.978Z,6.90
2019-03-17T04:08:12.102Z,7.00
2019-03-17T04:09:19.671Z,6.90
2019-03-17T04:10:26.809Z,7.00
2019-03-17T04:11:34.077Z,6.90
2019-03-17T04:12:41.763Z,6.90
2019-03-17T04:13:50.412Z,6.90
2019-03-17T04:14:57.813Z,7.00
2019-03-17T04:16:05.239Z,7.00
2019-03-17T04:17:12.401Z,7.00
2019-03-17T04:18:19.809Z,7.00
2019-03-17T04:19:27.288Z,7.00
2019-03-17T04:20:34.674Z,7.00
2019-03-17T04:21:42.242Z,7.00
2019-03-17T04:22:49.511Z,7.00
2019-03-17T04:23:56.798Z,7.10
2019-03-17T04:25:04.212Z,7.00
2019-03-17T04:26:11.748Z,7.00
2019-03-17T04:27:19.119Z,7.00
2019-03-17T04:28:26.502Z,7.00
2019-03-17T04:29:33.882Z,7.00
2019-03-17T04:30:41.390Z,7.00
2019-03-17T04:31:48.550Z,7.00
2019-03-17T04:32:55.840Z,7.10
2019-03-17T04:34:03.229Z,7.10
2019-03-17T04:35:10.864Z,7.10
2019-03-17T04:36:18.291Z,7.10
2019-03-17T04:37:25.970Z,7.10
2019-03-17T04:38:33.465Z,7.10
2019-03-17T04:39:41.303Z,7.00
2019-03-17T04:40:48.689Z,7.10
2019-03-17T04:41:55.842Z,7.10
2019-03-17T04:43:03.059Z,7.10
2019-03-17T04:44:20.266Z,7.20
2019-03-17T04:45:19.170Z,7.20
2019-03-17T04:46:26.501Z,7.20
2019-03-17T04:47:33.947Z,7.20
2019-03-17T04:48:41.176Z,7.20
2019-03-17T04:49:48.557Z,7.20
2019-03-17T04:50:55.927Z,7.10
2019-03-17T04:52:03.350Z,7.10
2019-03-17T04:53:10.364Z,7.10
2019-03-17T04:54:17.658Z,7.20
2019-03-17T04:55:25.131Z,7.20
2019-03-17T04:56:32.429Z,7.20
2019-03-17T04:57:39.874Z,7.20
2019-03-17T04:58:46.972Z,7.20
2019-03-17T04:59:54.861Z,7.20
2019-03-17T05:01:02.071Z,7.20
2019-03-17T05:02:09.101Z,7.20
2019-03-17T05:03:16.597Z,7.20
2019-03-17T05:04:23.774Z,7.20
2019-03-17T05:05:32.020Z,7.20
2019-03-17T05:06:51.546Z,7.30
2019-03-17T05:07:48.299Z,7.30
2019-03-17T05:08:55.642Z,7.20
2019-03-17T05:10:03.051Z,7.20
2019-03-17T05:11:10.331Z,7.30
2019-03-17T05:12:17.642Z,7.30
2019-03-17T05:13:25.088Z,7.20
2019-03-17T05:14:32.530Z,7.30
2019-03-17T05:15:40.260Z,7.30
2019-03-17T05:16:47.650Z,7.30
2019-03-17T05:17:54.938Z,7.30
2019-03-17T05:19:02.201Z,7.30
2019-03-17T05:20:09.978Z,7.30
2019-03-17T05:21:17.480Z,7.30
2019-03-17T05:22:25.069Z,7.30
2019-03-17T05:23:32.420Z,7.30
2019-03-17T05:24:39.907Z,7.40
2019-03-17T05:25:47.131Z,7.30
2019-03-17T05:26:54.349Z,7.40
2019-03-17T05:28:01.842Z,7.40
2019-03-17T05:29:09.209Z,7.40
2019-03-17T05:30:16.591Z,7.40
2019-03-17T05:31:23.980Z,7.40
2019-03-17T05:32:31.244Z,7.50
2019-03-17T05:33:39.162Z,7.50
2019-03-17T05:34:46.519Z,7.50
2019-03-17T05:35:53.798Z,7.40
2019-03-17T05:37:06.502Z,7.50
2019-03-17T05:38:10.477Z,7.50
2019-03-17T05:39:17.980Z,7.50
2019-03-17T05:40:25.179Z,7.50
2019-03-17T05:41:32.421Z,7.50
2019-03-17T05:42:40.878Z,7.50
2019-03-17T05:43:48.538Z,7.50
2019-03-17T05:44:55.681Z,7.50
2019-03-17T05:46:03.071Z,7.60
2019-03-17T05:47:10.361Z,7.60
2019-03-17T05:48:17.598Z,7.50
2019-03-17T05:49:25.018Z,7.50
2019-03-17T05:50:32.405Z,7.40
2019-03-17T05:51:39.880Z,7.50
2019-03-17T05:52:47.190Z,7.60
2019-03-17T05:53:54.480Z,7.60
2019-03-17T05:55:01.967Z,7.60
2019-03-17T05:56:09.308Z,7.60
2019-03-17T05:57:16.763Z,7.60
2019-03-17T05:58:24.186Z,7.60
2019-03-17T05:59:31.499Z,7.50
2019-03-17T06:00:38.977Z,7.60
2019-03-17T06:01:46.419Z,7.70
2019-03-17T06:02:53.796Z,7.70
2019-03-17T06:04:01.223Z,7.70
2019-03-17T06:05:09.062Z,7.70
2019-03-17T06:06:16.659Z,7.70
2019-03-17T06:07:24.010Z,7.70
2019-03-17T06:08:33.579Z,7.70
2019-03-17T06:09:39.783Z,7.70
2019-03-17T06:10:47.989Z,7.70
2019-03-17T06:11:55.415Z,7.70
2019-03-17T06:13:02.963Z,7.70
2019-03-17T06:14:10.242Z,7.70
2019-03-17T06:15:17.669Z,7.70
2019-03-17T06:16:25.057Z,7.80
2019-03-17T06:17:32.511Z,7.80
2019-03-17T06:18:39.981Z,7.80
2019-03-17T06:19:47.173Z,7.80
2019-03-17T06:20:54.394Z,7.90
2019-03-17T06:22:01.901Z,7.90
2019-03-17T06:23:09.614Z,8.00
2019-03-17T06:24:17.187Z,8.00
2019-03-17T06:25:24.660Z,8.00
2019-03-17T06:26:32.011Z,8.00
2019-03-17T06:27:39.234Z,8.00
2019-03-17T06:28:46.651Z,8.00
2019-03-17T06:29:54.036Z,8.00
2019-03-17T06:31:01.275Z,8.10
2019-03-17T06:32:09.750Z,8.10
2019-03-17T06:33:17.298Z,8.10
2019-03-17T06:34:24.726Z,8.20
2019-03-17T06:35:32.838Z,8.20
2019-03-17T06:36:39.979Z,8.30
2019-03-17T06:37:47.495Z,8.30
2019-03-17T06:38:55.117Z,8.30
2019-03-17T06:40:02.518Z,8.30
2019-03-17T06:41:10.718Z,8.30
2019-03-17T06:42:18.209Z,8.30
2019-03-17T06:43:25.898Z,8.30
2019-03-17T06:44:33.689Z,8.30
2019-03-17T06:45:41.258Z,8.30
2019-03-17T06:46:49.641Z,8.40
2019-03-17T06:47:57.080Z,8.40
2019-03-17T06:49:04.228Z,8.40
2019-03-17T06:50:12.184Z,8.40
2019-03-17T06:51:19.692Z,8.40
2019-03-17T06:52:27.893Z,8.40
2019-03-17T06:53:35.009Z,8.50
2019-03-17T06:54:42.156Z,8.50
2019-03-17T06:55:49.556Z,8.50
2019-03-17T06:56:56.789Z,8.60
2019-03-17T06:58:04.179Z,8.60
2019-03-17T06:59:11.569Z,8.60
2019-03-17T07:00:20.003Z,8.70
2019-03-17T07:01:27.406Z,8.70
2019-03-17T07:02:35.070Z,8.80
2019-03-17T07:03:42.520Z,8.80
2019-03-17T07:04:49.955Z,8.80
2019-03-17T07:05:57.102Z,8.90
2019-03-17T07:07:10.250Z,8.90
2019-03-17T07:08:17.630Z,8.90
2019-03-17T07:09:24.735Z,9.00
2019-03-17T07:10:32.147Z,9.00
2019-03-17T07:11:39.434Z,9.00
2019-03-17T07:12:48.373Z,9.10
2019-03-17T07:13:55.870Z,9.10
2019-03-17T07:15:03.091Z,9.10
2019-03-17T07:16:11.142Z,9.10
2019-03-17T07:17:19.454Z,9.10
2019-03-17T07:18:26.930Z,9.20
2019-03-17T07:19:34.030Z,9.20
2019-03-17T07:20:41.600Z,9.20
2019-03-17T07:21:49.068Z,9.20
2019-03-17T07:22:56.839Z,9.20
2019-03-17T07:24:04.524Z,9.20
2019-03-17T07:25:12.750Z,9.30
2019-03-17T07:26:20.355Z,9.20
2019-03-17T07:27:27.717Z,9.30
2019-03-17T07:28:35.060Z,9.30
2019-03-17T07:29:42.904Z,9.30
2019-03-17T07:30:50.255Z,9.40
2019-03-17T07:31:57.300Z,9.30
2019-03-17T07:33:04.817Z,9.40
2019-03-17T07:34:13.219Z,9.50
2019-03-17T07:35:21.285Z,9.60
2019-03-17T07:36:28.752Z,9.70
2019-03-17T07:37:36.088Z,9.70
2019-03-17T07:38:43.052Z,9.70
2019-03-17T07:39:49.892Z,9.80
2019-03-17T07:40:56.737Z,9.80
2019-03-17T07:42:04.620Z,9.80
2019-03-17T07:43:11.446Z,9.80
2019-03-17T07:44:18.938Z,9.80
2019-03-17T07:45:28.389Z,9.90
2019-03-17T07:46:35.749Z,9.90
2019-03-17T07:47:43.540Z,9.90
2019-03-17T07:48:52.105Z,9.90
2019-03-17T07:49:59.334Z,10.00
2019-03-17T07:51:06.469Z,10.00
2019-03-17T07:52:14.024Z,10.00
2019-03-17T07:53:21.421Z,10.10
2019-03-17T07:54:29.129Z,10.10
2019-03-17T07:55:36.897Z,10.50
2019-03-17T07:56:44.289Z,10.60
2019-03-17T07:57:51.551Z,11.30
2019-03-17T07:58:59.131Z,11.80
2019-03-17T08:00:08.573Z,11.50
2019-03-17T08:01:15.594Z,11.20
2019-03-17T08:02:22.863Z,11.20
2019-03-17T08:03:30.322Z,11.30
2019-03-17T08:04:42.526Z,11.30
2019-03-17T08:05:48.340Z,11.20
2019-03-17T08:06:57.262Z,11.10
2019-03-17T08:08:09.827Z,10.90
2019-03-17T08:09:14.336Z,10.80
2019-03-17T08:10:21.494Z,10.70
2019-03-17T08:11:28.903Z,10.60
2019-03-17T08:12:36.553Z,10.50
2019-03-17T08:13:43.603Z,10.60
2019-03-17T08:14:50.970Z,10.60
2019-03-17T08:15:58.372Z,10.60
2019-03-17T08:17:05.783Z,10.60
2019-03-17T08:18:13.291Z,10.50
2019-03-17T08:19:20.429Z,10.60
2019-03-17T08:20:30.141Z,10.60
2019-03-17T08:21:38.447Z,10.70
2019-03-17T08:22:48.301Z,10.70
2019-03-17T08:23:55.668Z,10.80
2019-03-17T08:25:03.341Z,10.90
2019-03-17T08:26:12.646Z,11.00
2019-03-17T08:27:22.642Z,11.00
2019-03-17T08:28:30.989Z,11.00
2019-03-17T08:29:38.663Z,11.10
2019-03-17T08:30:53.127Z,11.10
2019-03-17T08:31:55.442Z,11.20
2019-03-17T08:33:03.095Z,11.50
2019-03-17T08:34:10.790Z,11.50
2019-03-17T08:35:19.489Z,11.60
2019-03-17T08:36:27.183Z,11.60
2019-03-17T08:37:34.546Z,11.60
2019-03-17T08:38:41.860Z,11.70
2019-03-17T08:39:49.432Z,11.70
2019-03-17T08:40:56.917Z,11.60
2019-03-17T08:42:04.796Z,11.60
2019-03-17T08:43:13.544Z,11.60
2019-03-17T08:44:21.461Z,11.60
2019-03-17T08:45:32.472Z,11.70
2019-03-17T08:46:40.756Z,11.80
2019-03-17T08:47:57.873Z,11.70
2019-03-17T08:48:58.330Z,11.80
2019-03-17T08:50:06.586Z,11.90
2019-03-17T08:51:13.928Z,12.00
2019-03-17T08:52:21.192Z,12.10
2019-03-17T08:53:28.443Z,12.00
2019-03-17T08:54:35.561Z,11.80
2019-03-17T08:55:42.982Z,11.80
2019-03-17T08:56:50.345Z,11.90
2019-03-17T08:57:57.730Z,11.70
2019-03-17T08:59:05.245Z,11.80
2019-03-17T09:00:13.645Z,12.00
2019-03-17T09:01:21.079Z,12.00
2019-03-17T09:02:28.480Z,11.90
2019-03-17T09:03:35.877Z,12.00
2019-03-17T09:04:43.253Z,12.00
2019-03-17T09:05:50.401Z,11.90
2019-03-17T09:06:57.740Z,12.00
2019-03-17T09:08:05.182Z,12.10
2019-03-17T09:09:12.887Z,12.30
2019-03-17T09:10:20.080Z,12.40
2019-03-17T09:11:27.205Z,12.50
2019-03-17T09:12:34.599Z,12.60
2019-03-17T09:13:42.081Z,12.70
2019-03-17T09:14:50.179Z,12.90
2019-03-17T09:15:58.063Z,13.10
2019-03-17T09:17:14.150Z,13.20
2019-03-17T09:18:14.266Z,13.20
2019-03-17T09:19:21.660Z,13.30
2019-03-17T09:20:28.647Z,13.40
2019-03-17T09:21:36.263Z,13.20
2019-03-17T09:22:43.595Z,13.20
2019-03-17T09:23:51.270Z,13.20
2019-03-17T09:24:58.719Z,13.10
2019-03-17T09:26:06.145Z,13.10
2019-03-17T09:27:13.422Z,13.00
2019-03-17T09:28:20.815Z,13.10
2019-03-17T09:29:28.283Z,13.10
2019-03-17T09:30:35.679Z,13.00
2019-03-17T09:31:43.841Z,12.90
2019-03-17T09:32:51.200Z,12.80
2019-03-17T09:33:58.568Z,12.60
2019-03-17T09:35:06.366Z,12.50
2019-03-17T09:36:13.962Z,12.40
2019-03-17T09:37:21.471Z,12.50
2019-03-17T09:38:29.005Z,12.80
2019-03-17T09:39:36.533Z,13.10
2019-03-17T09:40:43.902Z,13.40
2019-03-17T09:41:51.207Z,13.30
2019-03-17T09:42:58.617Z,13.20
2019-03-17T09:44:06.253Z,13.30
2019-03-17T09:45:14.051Z,13.50
2019-03-17T09:46:21.707Z,13.50
2019-03-17T09:47:29.482Z,13.30
2019-03-17T09:48:36.900Z,13.40
2019-03-17T09:49:44.791Z,13.50
2019-03-17T09:50:52.452Z,13.60
2019-03-17T09:51:59.882Z,13.50
2019-03-17T09:53:07.666Z,13.30
2019-03-17T09:54:15.724Z,13.10
2019-03-17T09:55:23.207Z,13.00
2019-03-17T09:56:30.844Z,12.80
2019-03-17T09:57:38.546Z,12.70
2019-03-17T09:58:46.305Z,12.80
2019-03-17T09:59:53.761Z,12.80
2019-03-17T10:01:01.639Z,12.90
2019-03-17T10:02:09.575Z,13.10
2019-03-17T10:03:17.412Z,13.10
2019-03-17T10:04:24.874Z,13.30
2019-03-17T10:05:32.449Z,13.30
2019-03-17T10:06:41.699Z,13.50
2019-03-17T10:07:49.499Z,13.50
2019-03-17T10:09:00.262Z,13.60
2019-03-17T10:10:06.827Z,13.80
2019-03-17T10:11:14.303Z,13.90
2019-03-17T10:12:23.029Z,14.10
2019-03-17T10:13:31.233Z,14.00
2019-03-17T10:14:38.691Z,14.00
2019-03-17T10:15:46.764Z,14.20
2019-03-17T10:16:54.438Z,14.30
2019-03-17T10:18:02.012Z,14.10
2019-03-17T10:19:09.533Z,14.10
2019-03-17T10:20:17.568Z,14.20
2019-03-17T10:21:25.241Z,14.00
2019-03-17T10:22:32.471Z,13.80
2019-03-17T10:23:39.881Z,13.60
2019-03-17T10:24:47.769Z,13.80
2019-03-17T10:25:55.546Z,13.90
2019-03-17T10:27:03.315Z,14.00
2019-03-17T10:28:11.250Z,13.90
2019-03-17T10:29:18.763Z,14.00
2019-03-17T10:30:26.423Z,14.20
2019-03-17T10:31:34.230Z,14.20
2019-03-17T10:32:41.383Z,14.30
2019-03-17T10:33:48.812Z,14.30
2019-03-17T10:34:56.269Z,14.20
2019-03-17T10:36:04.034Z,14.10
2019-03-17T10:37:11.941Z,14.10
2019-03-17T10:38:19.534Z,14.20
2019-03-17T10:39:27.873Z,14.40
2019-03-17T10:40:35.904Z,14.80
2019-03-17T10:41:43.611Z,14.90
2019-03-17T10:42:51.080Z,14.80
2019-03-17T10:43:58.606Z,14.50
2019-03-17T10:45:06.259Z,14.70
2019-03-17T10:46:14.204Z,14.70
2019-03-17T10:47:21.656Z,14.70
2019-03-17T10:48:29.241Z,15.00
2019-03-17T10:49:36.898Z,15.20
2019-03-17T10:50:49.599Z,15.40
2019-03-17T10:51:53.918Z,15.00
2019-03-17T10:53:03.951Z,15.10
2019-03-17T10:54:11.121Z,16.40
2019-03-17T10:55:18.890Z,17.40
2019-03-17T10:56:26.589Z,17.70
2019-03-17T10:57:34.193Z,17.20
2019-03-17T10:58:41.800Z,17.40
2019-03-17T10:59:49.502Z,17.00
2019-03-17T11:00:57.090Z,17.00
2019-03-17T11:02:04.951Z,16.90
2019-03-17T11:03:12.407Z,17.50
2019-03-17T11:04:19.848Z,18.80
2019-03-17T11:05:27.663Z,20.20
2019-03-17T11:06:35.035Z,20.90
2019-03-17T11:07:42.670Z,22.20
2019-03-17T11:08:50.002Z,22.60
2019-03-17T11:09:57.617Z,24.00
2019-03-17T11:11:05.600Z,24.20
2019-03-17T11:12:13.334Z,23.20
2019-03-17T11:13:21.347Z,22.80
2019-03-17T11:14:28.688Z,23.40
2019-03-17T11:15:35.988Z,22.80
2019-03-17T11:16:43.660Z,22.80
2019-03-17T11:17:51.499Z,22.50
2019-03-17T11:18:59.381Z,23.50
2019-03-17T11:20:07.599Z,23.60
2019-03-17T11:21:15.614Z,23.80
2019-03-17T11:22:23.567Z,23.90
2019-03-17T11:23:31.174Z,24.80
2019-03-17T11:24:39.316Z,26.20
2019-03-17T11:25:47.193Z,26.00
2019-03-17T11:26:55.790Z,25.70
2019-03-17T11:28:04.461Z,25.70
2019-03-17T11:29:12.152Z,25.20
2019-03-17T11:30:19.697Z,25.80
2019-03-17T11:31:27.437Z,26.10
2019-03-17T11:32:35.101Z,26.20
2019-03-17T11:33:42.369Z,25.80
2019-03-17T11:34:50.178Z,25.40
2019-03-17T11:35:57.990Z,25.70
2019-03-17T11:37:05.890Z,25.00
2019-03-17T11:38:13.558Z,24.90
2019-03-17T11:39:21.216Z,24.50
2019-03-17T11:40:28.980Z,23.90
2019-03-17T11:41:36.844Z,24.60
2019-03-17T11:42:44.508Z,24.20
2019-03-17T11:43:51.829Z,24.60
2019-03-17T11:44:59.372Z,24.20
2019-03-17T11:46:08.044Z,24.80
2019-03-17T11:47:16.101Z,25.60
2019-03-17T11:48:24.283Z,26.60
2019-03-17T11:49:32.105Z,26.20
2019-03-17T11:50:39.869Z,26.20
2019-03-17T11:51:47.731Z,26.50
2019-03-17T11:52:56.194Z,26.70
2019-03-17T11:54:04.005Z,25.50
2019-03-17T11:55:12.622Z,25.70
2019-03-17T11:56:20.705Z,26.20
2019-03-17T11:57:28.592Z,25.80
2019-03-17T11:58:36.537Z,25.80
2019-03-17T11:59:43.986Z,24.80
2019-03-17T12:00:51.854Z,25.00
2019-03-17T12:01:59.637Z,24.20
2019-03-17T12:03:07.525Z,24.00
2019-03-17T12:04:16.007Z,24.10
2019-03-17T12:05:24.124Z,23.50
2019-03-17T12:06:32.029Z,23.20
2019-03-17T12:07:39.865Z,24.10
2019-03-17T12:08:47.799Z,24.80
2019-03-17T12:09:56.109Z,25.60
2019-03-17T12:11:04.223Z,24.80
2019-03-17T12:12:12.226Z,23.90
2019-03-17T12:13:20.041Z,23.80
2019-03-17T12:14:27.845Z,23.60
2019-03-17T12:15:36.954Z,22.40
2019-03-17T12:16:44.762Z,22.10
2019-03-17T12:17:52.635Z,22.30
2019-03-17T12:19:01.181Z,22.40
2019-03-17T12:20:09.611Z,22.60
2019-03-17T12:21:17.948Z,23.10
2019-03-17T12:22:26.009Z,23.50
2019-03-17T12:23:34.002Z,23.60
2019-03-17T12:24:43.088Z,23.40
2019-03-17T12:25:50.802Z,24.40
2019-03-17T12:26:58.833Z,25.20
2019-03-17T12:28:07.087Z,25.00
2019-03-17T12:29:15.224Z,24.80
2019-03-17T12:30:23.894Z,23.90
2019-03-17T12:31:32.142Z,23.70
2019-03-17T12:32:39.765Z,24.10
2019-03-17T12:33:47.628Z,23.70
2019-03-17T12:34:55.606Z,24.40
2019-03-17T12:36:03.621Z,24.80
2019-03-17T12:37:11.703Z,24.70
2019-03-17T12:38:20.978Z,23.50
2019-03-17T12:39:29.213Z,22.90
2019-03-17T12:40:37.130Z,22.70
2019-03-17T12:41:45.029Z,23.10
2019-03-17T12:42:52.850Z,22.60
2019-03-17T12:44:01.176Z,22.50
2019-03-17T12:45:09.533Z,22.90
2019-03-17T12:46:17.861Z,22.80
2019-03-17T12:47:26.013Z,22.70
2019-03-17T12:48:33.881Z,22.50
2019-03-17T12:49:41.813Z,22.20
2019-03-17T12:50:50.213Z,21.90
2019-03-17T12:51:58.491Z,22.70
2019-03-17T12:53:07.864Z,23.00
2019-03-17T12:54:16.292Z,23.30
2019-03-17T12:55:24.431Z,24.10
2019-03-17T12:56:32.410Z,24.00
2019-03-17T12:57:39.957Z,22.70
2019-03-17T12:58:47.835Z,21.80
2019-03-17T12:59:59.543Z,21.00
2019-03-17T13:01:07.302Z,21.10
2019-03-17T13:02:15.531Z,20.70
2019-03-17T13:03:23.761Z,20.40
2019-03-17T13:04:31.612Z,20.30
2019-03-17T13:05:40.069Z,20.30
2019-03-17T13:06:48.150Z,20.30
2019-03-17T13:07:56.541Z,20.50
2019-03-17T13:09:08.155Z,21.10
2019-03-17T13:10:16.954Z,21.70
2019-03-17T13:11:26.192Z,21.90
2019-03-17T13:12:35.501Z,22.30
2019-03-17T13:13:44.693Z,22.60
2019-03-17T13:14:53.949Z,22.70
2019-03-17T13:16:02.095Z,22.70
2019-03-17T13:17:10.181Z,22.70
2019-03-17T13:18:18.099Z,22.50
2019-03-17T13:19:26.022Z,22.50
2019-03-17T13:20:34.162Z,22.40
2019-03-17T13:21:42.326Z,22.20
2019-03-17T13:22:50.136Z,21.60
2019-03-17T13:23:58.111Z,21.50
2019-03-17T13:25:06.496Z,21.80
2019-03-17T13:26:14.646Z,21.70
2019-03-17T13:27:22.638Z,21.50
2019-03-17T13:28:31.151Z,22.00
2019-03-17T13:29:39.018Z,22.40
2019-03-17T13:30:50.241Z,22.30
2019-03-17T13:31:58.065Z,22.00
2019-03-17T13:33:06.408Z,21.80
2019-03-17T13:34:14.585Z,21.60
2019-03-17T13:35:22.476Z,21.50
2019-03-17T13:36:30.819Z,21.20
2019-03-17T13:37:39.052Z,20.80
2019-03-17T13:38:48.821Z,20.80
2019-03-17T13:39:57.131Z,20.80
2019-03-17T13:41:05.137Z,20.70
2019-03-17T13:42:13.020Z,20.20
2019-03-17T13:43:20.993Z,20.20
2019-03-17T13:44:29.274Z,20.10
2019-03-17T13:45:37.339Z,19.80
2019-03-17T13:46:46.431Z,19.70
2019-03-17T13:47:53.841Z,19.80
2019-03-17T13:49:01.874Z,19.60
2019-03-17T13:50:11.369Z,19.60
2019-03-17T13:51:22.533Z,19.70
2019-03-17T13:52:30.877Z,19.70
2019-03-17T13:53:38.954Z,19.60
2019-03-17T13:54:46.832Z,19.60
2019-03-17T13:55:56.424Z,19.40
2019-03-17T13:57:04.816Z,19.30
2019-03-17T13:58:12.810Z,19.20
2019-03-17T13:59:20.667Z,19.30
2019-03-17T14:00:28.945Z,19.40
2019-03-17T14:01:37.174Z,19.30
2019-03-17T14:02:45.641Z,19.40
2019-03-17T14:03:54.993Z,19.50
2019-03-17T14:05:03.318Z,19.70
2019-03-17T14:06:11.331Z,19.70
2019-03-17T14:07:19.795Z,19.80
2019-03-17T14:08:27.996Z,20.00
2019-03-17T14:09:35.962Z,20.30
2019-03-17T14:10:44.246Z,21.10
2019-03-17T14:11:52.525Z,21.50
2019-03-17T14:13:00.530Z,21.60
2019-03-17T14:14:08.934Z,21.70
2019-03-17T14:15:17.281Z,21.70
2019-03-17T14:16:25.175Z,21.60
2019-03-17T14:17:33.480Z,21.60
2019-03-17T14:18:41.722Z,21.50
2019-03-17T14:19:49.764Z,21.10
2019-03-17T14:20:58.009Z,20.60
2019-03-17T14:22:06.089Z,20.50
2019-03-17T14:23:13.928Z,20.30
2019-03-17T14:24:21.804Z,20.00
2019-03-17T14:25:31.267Z,19.70
2019-03-17T14:26:39.783Z,19.60
2019-03-17T14:27:47.672Z,19.70
2019-03-17T14:28:55.637Z,19.60
2019-03-17T14:30:05.161Z,19.60
2019-03-17T14:31:13.620Z,19.60
2019-03-17T14:32:21.600Z,19.50
2019-03-17T14:33:29.389Z,19.40
2019-03-17T14:34:37.690Z,19.40
2019-03-17T14:35:45.820Z,19.50
2019-03-17T14:36:53.989Z,19.70
2019-03-17T14:38:03.262Z,19.70
2019-03-17T14:39:11.517Z,19.80
2019-03-17T14:40:19.740Z,19.80
2019-03-17T14:41:27.827Z,19.70
2019-03-17T14:42:36.063Z,19.70
2019-03-17T14:43:44.203Z,19.70
2019-03-17T14:44:52.193Z,19.70
2019-03-17T14:45:59.961Z,19.60
2019-03-17T14:47:08.182Z,19.60
2019-03-17T14:48:16.297Z,19.60